Terminal Aerodrome Forecast
Issued by NWS

Home | Current Version | Previous Version | Text Only | Print | Product List | Glossary Off
Versions: 1 2 3 4 5 6 7 8 9 10 11 12 13 14 15 16 17 18

000
FTUS43 KGRB 220520
TAFAUW
TAF
KAUW 220520Z 2206/2306 VRB03KT P6SM SKC
      TEMPO 2208/2212 3SM BR
     FM221500 20009KT P6SM SCT030
     FM221800 20012G18KT P6SM SCT045
     FM230200 18009KT P6SM BKN080 WS010/21035KT=

USA.gov is the U.S. government's official web portal to all federal, state and local government web resources and services.